Shin-oh Maru — JG5594 — position and weather

sailwx.info

Track history (hours):
 
Tides and Currents Weather Stations Pressure Air Temp Water Temp Dewpoint Dewpoint Depression Visibility Wind Speed Wind Dir Waves Ship Positions

Shin-oh Maru

Last reported at 2014-Sep-01 23:31 UTC. Time now 2014-Sep-03 05:00 UTC.
Position N 36°19' E 141°14'.

Length 161 m; draft 7 m.

Type: Ship (hazmat cat A). MMSI: 431100859.

Date/timePositionNaut miles runAvg speedWind from/ knotsBaromVisibWave heightAir tempDewpointWater temp
2014-Sep-01 23:31N 36°19' E 141°14'2218.2
2014-Sep-01 22:18N 35°58' E 141°07'1318.0
2014-Sep-01 21:33N 35°45' E 141°02'1817.8
2014-Sep-01 20:33N 35°29' E 140°52'1919.0
2014-Sep-01 19:33N 35°15' E 140°37'1918.8
2014-Sep-01 18:33N 35°02' E 140°20'1918.4
2014-Sep-01 17:33N 34°53' E 140°00'1716.7
2014-Sep-01 16:33N 34°59' E 139°42'1817.8
2014-Sep-01 15:33N 35°17' E 139°45'1514.8
2014-Sep-01 14:34N 35°31' E 139°51'8 8.3
2014-Sep-01 13:33N 35°38' E 139°46'0 0.0
2014-Sep-01 12:33N 35°38' E 139°46'0 0.0
2014-Sep-01 11:32N 35°38' E 139°46'0 0.0
2014-Sep-01 10:32N 35°38' E 139°46'0 0.0
2014-Sep-01 09:32N 35°38' E 139°46'0 0.0
2014-Sep-01 08:32N 35°38' E 139°46'0 0.0
2014-Sep-01 07:32N 35°38' E 139°46'0 0.1
2014-Sep-01 06:33N 35°38' E 139°46'7 6.6
2014-Sep-01 05:31N 35°34' E 139°53'0 0.0
2014-Sep-01 04:31N 35°34' E 139°53'0 0.0
2014-Sep-01 03:28N 35°34' E 139°53'0 0.0
2014-Sep-01 02:31N 35°34' E 139°53'0 0.0
2014-Sep-01 01:31N 35°34' E 139°53'0 0.0
2014-Sep-01 00:31N 35°34' E 139°53'0 0.0
2014-Aug-31 23:22N 35°34' E 139°53'0 0.0
2014-Aug-31 22:28N 35°34' E 139°53'0 0.0
2014-Aug-31 21:31N 35°34' E 139°53'0 0.0
2014-Aug-31 20:31N 35°34' E 139°53'0 0.0
2014-Aug-31 19:31N 35°34' E 139°53'0 0.0
2014-Aug-31 18:31N 35°34' E 139°53'0 0.0
2014-Aug-31 17:31N 35°34' E 139°53'0 0.0
2014-Aug-31 16:31N 35°34' E 139°53'0 0.0
2014-Aug-31 15:31N 35°34' E 139°53'0 0.0
2014-Aug-31 14:31N 35°34' E 139°53'0 0.0
2014-Aug-31 13:28N 35°34' E 139°53'0 0.1
2014-Aug-31 12:31N 35°34' E 139°53'0 0.0
2014-Aug-31 11:28N 35°34' E 139°53'0 0.0
2014-Aug-31 10:31N 35°34' E 139°53'0 0.0
2014-Aug-31 09:31N 35°34' E 139°53'0 0.1
2014-Aug-31 08:33N 35°34' E 139°53'1515.2
2014-Aug-31 07:33N 35°20' E 139°44'1414.2
2014-Aug-31 06:34N 35°06' E 139°46'1514.5
2014-Aug-31 05:30N 34°51' E 139°51'1617.3
2014-Aug-31 04:33N 34°57' E 140°10'1917.6
2014-Aug-31 03:29N 35°08' E 140°29'1718.8
2014-Aug-31 02:34N 35°22' E 140°42'67 1.3
2014-Aug-28 23:23N 36°22' E 141°17'1417.4
2014-Aug-28 22:33N 36°08' E 141°11'1817.8
2014-Aug-28 21:32N 35°51' E 141°04'1717.7
2014-Aug-28 20:33N 35°35' E 140°57'1717.4
2014-Aug-28 19:33N 35°21' E 140°44'1817.8
2014-Aug-28 18:33N 35°08' E 140°29'1817.6
2014-Aug-28 17:33N 34°58' E 140°12'1717.3
2014-Aug-28 16:33N 34°51' E 139°52'1615.8
2014-Aug-28 15:33N 35°05' E 139°44'1514.8
2014-Aug-28 14:33N 35°20' E 139°43'1515.4
2014-Aug-28 13:33N 35°35' E 139°48'4 3.7
2014-Aug-28 12:33N 35°38' E 139°46'0 0.0
2014-Aug-28 11:30N 35°38' E 139°46'0 0.0
2014-Aug-28 10:33N 35°38' E 139°46'0 0.0
2014-Aug-28 09:33N 35°38' E 139°46'0 0.0
2014-Aug-28 08:33N 35°38' E 139°46'1110.9
2014-Aug-28 07:34N 35°28' E 139°51'1212.3
2014-Aug-28 06:33N 35°16' E 139°47'1616.3
2014-Aug-28 05:33N 34°60' E 139°43'1514.9
2014-Aug-28 04:33N 34°53' E 139°59'1919.0
2014-Aug-28 03:33N 35°03' E 140°19'2119.2
2014-Aug-28 02:29N 35°16' E 140°38'2119.0
2014-Aug-28 01:21N 35°34' E 140°53'55 1.1
2014-Aug-25 23:24N 36°25' E 141°18'1517.9
2014-Aug-25 22:33N 36°10' E 141°13'2718.0
2014-Aug-25 21:05N 35°44' E 141°04'1518.5
2014-Aug-25 20:15N 35°31' E 140°54'1418.1
2014-Aug-25 19:29N 35°20' E 140°43'1819.4
2014-Aug-25 18:33N 35°07' E 140°29'1918.9
2014-Aug-25 17:33N 34°57' E 140°10'1918.4
2014-Aug-25 16:33N 34°52' E 139°48'1717.3
2014-Aug-25 15:33N 35°09' E 139°45'1414.3
2014-Aug-25 14:34N 35°23' E 139°42'1413.8
2014-Aug-25 13:34N 35°36' E 139°47'2 1.7
2014-Aug-25 12:33N 35°38' E 139°46'0 0.0
2014-Aug-25 11:31N 35°38' E 139°46'0 0.0
2014-Aug-25 10:28N 35°38' E 139°46'0 0.0
2014-Aug-25 09:25N 35°38' E 139°46'0 0.0
2014-Aug-25 08:31N 35°38' E 139°46'0 0.0
2014-Aug-25 07:22N 35°38' E 139°46'0 0.0
2014-Aug-25 06:19N 35°38' E 139°46'0 0.0
2014-Aug-25 05:31N 35°38' E 139°46'0 0.0
2014-Aug-25 04:31N 35°38' E 139°46'0 0.0
2014-Aug-25 03:28N 35°38' E 139°46'2 2.4
2014-Aug-25 02:33N 35°36' E 139°47'5 5.1
2014-Aug-25 01:32N 35°34' E 139°53'0 0.0
2014-Aug-25 00:29N 35°34' E 139°53'0 0.0
2014-Aug-24 23:32N 35°34' E 139°53'0 0.1
2014-Aug-24 22:32N 35°34' E 139°53'0 0.0
2014-Aug-24 21:29N 35°34' E 139°53'0 0.0
2014-Aug-24 20:29N 35°34' E 139°53'0 0.0
2014-Aug-24 19:32N 35°34' E 139°53'0 0.0
2014-Aug-24 18:32N 35°34' E 139°53'0 0.0
2014-Aug-24 17:32N 35°34' E 139°53'0 0.0
2014-Aug-24 16:32N 35°34' E 139°53'0 0.0
2014-Aug-24 15:32N 35°34' E 139°53'0 0.0
2014-Aug-24 14:32N 35°34' E 139°53'0 0.0
2014-Aug-24 13:32N 35°34' E 139°53'0 0.0
2014-Aug-24 12:32N 35°34' E 139°53'0 0.0
2014-Aug-24 11:32N 35°34' E 139°53'0 0.0
2014-Aug-24 10:32N 35°34' E 139°53'0 0.0
2014-Aug-24 09:29N 35°34' E 139°53'0 0.0
2014-Aug-24 08:33N 35°34' E 139°53'1312.7
2014-Aug-24 07:33N 35°23' E 139°46'1313.0
2014-Aug-24 06:33N 35°10' E 139°47'1716.9
2014-Aug-24 05:33N 34°53' E 139°47'1616.1
2014-Aug-24 04:33N 34°56' E 140°06'2118.3
2014-Aug-24 03:25N 35°07' E 140°28'1818.5
2014-Aug-24 02:27N 35°21' E 140°42'1818.1
2014-Aug-24 01:28N 35°36' E 140°54'2618.6
2014-Aug-24 00:04N 35°59' E 141°07'1121.2
2014-Aug-23 23:33N 36°10' E 141°11'2020.3
2014-Aug-23 22:33N 36°29' E 141°17'2219.3
2014-Aug-23 21:23N 36°51' E 141°25'  
Track history (hours):
 
Tides and Currents Weather Stations Pressure Air Temp Water Temp Dewpoint Dewpoint Depression Visibility Wind Speed Wind Dir Waves Ship Positions

Shin-oh Maru

Last reported at 2014-Sep-01 23:31 UTC. Time now 2014-Sep-03 05:00 UTC.
Position N 36°19' E 141°14'.

Length 161 m; draft 7 m.

Type: Ship (hazmat cat A). MMSI: 431100859.

Date/timePositionNaut miles runAvg speedWind from/ knotsBaromVisibWave heightAir tempDewpointWater temp
2014-Sep-01 23:31N 36°19' E 141°14'2218.2
2014-Sep-01 22:18N 35°58' E 141°07'1318.0
2014-Sep-01 21:33N 35°45' E 141°02'1817.8
2014-Sep-01 20:33N 35°29' E 140°52'1919.0
2014-Sep-01 19:33N 35°15' E 140°37'1918.8
2014-Sep-01 18:33N 35°02' E 140°20'1918.4
2014-Sep-01 17:33N 34°53' E 140°00'1716.7
2014-Sep-01 16:33N 34°59' E 139°42'1817.8
2014-Sep-01 15:33N 35°17' E 139°45'1514.8
2014-Sep-01 14:34N 35°31' E 139°51'8 8.3
2014-Sep-01 13:33N 35°38' E 139°46'0 0.0
2014-Sep-01 12:33N 35°38' E 139°46'0 0.0
2014-Sep-01 11:32N 35°38' E 139°46'0 0.0
2014-Sep-01 10:32N 35°38' E 139°46'0 0.0
2014-Sep-01 09:32N 35°38' E 139°46'0 0.0
2014-Sep-01 08:32N 35°38' E 139°46'0 0.0
2014-Sep-01 07:32N 35°38' E 139°46'0 0.1
2014-Sep-01 06:33N 35°38' E 139°46'7 6.6
2014-Sep-01 05:31N 35°34' E 139°53'0 0.0
2014-Sep-01 04:31N 35°34' E 139°53'0 0.0
2014-Sep-01 03:28N 35°34' E 139°53'0 0.0
2014-Sep-01 02:31N 35°34' E 139°53'0 0.0
2014-Sep-01 01:31N 35°34' E 139°53'0 0.0
2014-Sep-01 00:31N 35°34' E 139°53'0 0.0
2014-Aug-31 23:22N 35°34' E 139°53'0 0.0
2014-Aug-31 22:28N 35°34' E 139°53'0 0.0
2014-Aug-31 21:31N 35°34' E 139°53'0 0.0
2014-Aug-31 20:31N 35°34' E 139°53'0 0.0
2014-Aug-31 19:31N 35°34' E 139°53'0 0.0
2014-Aug-31 18:31N 35°34' E 139°53'0 0.0
2014-Aug-31 17:31N 35°34' E 139°53'0 0.0
2014-Aug-31 16:31N 35°34' E 139°53'0 0.0
2014-Aug-31 15:31N 35°34' E 139°53'0 0.0
2014-Aug-31 14:31N 35°34' E 139°53'0 0.0
2014-Aug-31 13:28N 35°34' E 139°53'0 0.1
2014-Aug-31 12:31N 35°34' E 139°53'0 0.0
2014-Aug-31 11:28N 35°34' E 139°53'0 0.0
2014-Aug-31 10:31N 35°34' E 139°53'0 0.0
2014-Aug-31 09:31N 35°34' E 139°53'0 0.1
2014-Aug-31 08:33N 35°34' E 139°53'1515.2
2014-Aug-31 07:33N 35°20' E 139°44'1414.2
2014-Aug-31 06:34N 35°06' E 139°46'1514.5
2014-Aug-31 05:30N 34°51' E 139°51'1617.3
2014-Aug-31 04:33N 34°57' E 140°10'1917.6
2014-Aug-31 03:29N 35°08' E 140°29'1718.8
2014-Aug-31 02:34N 35°22' E 140°42'67 1.3
2014-Aug-28 23:23N 36°22' E 141°17'1417.4
2014-Aug-28 22:33N 36°08' E 141°11'1817.8
2014-Aug-28 21:32N 35°51' E 141°04'1717.7
2014-Aug-28 20:33N 35°35' E 140°57'1717.4
2014-Aug-28 19:33N 35°21' E 140°44'1817.8
2014-Aug-28 18:33N 35°08' E 140°29'1817.6
2014-Aug-28 17:33N 34°58' E 140°12'1717.3
2014-Aug-28 16:33N 34°51' E 139°52'1615.8
2014-Aug-28 15:33N 35°05' E 139°44'1514.8
2014-Aug-28 14:33N 35°20' E 139°43'1515.4
2014-Aug-28 13:33N 35°35' E 139°48'4 3.7
2014-Aug-28 12:33N 35°38' E 139°46'0 0.0
2014-Aug-28 11:30N 35°38' E 139°46'0 0.0
2014-Aug-28 10:33N 35°38' E 139°46'0 0.0
2014-Aug-28 09:33N 35°38' E 139°46'0 0.0
2014-Aug-28 08:33N 35°38' E 139°46'1110.9
2014-Aug-28 07:34N 35°28' E 139°51'1212.3
2014-Aug-28 06:33N 35°16' E 139°47'1616.3
2014-Aug-28 05:33N 34°60' E 139°43'1514.9
2014-Aug-28 04:33N 34°53' E 139°59'1919.0
2014-Aug-28 03:33N 35°03' E 140°19'2119.2
2014-Aug-28 02:29N 35°16' E 140°38'2119.0
2014-Aug-28 01:21N 35°34' E 140°53'55 1.1
2014-Aug-25 23:24N 36°25' E 141°18'1517.9
2014-Aug-25 22:33N 36°10' E 141°13'2718.0
2014-Aug-25 21:05N 35°44' E 141°04'1518.5
2014-Aug-25 20:15N 35°31' E 140°54'1418.1
2014-Aug-25 19:29N 35°20' E 140°43'1819.4
2014-Aug-25 18:33N 35°07' E 140°29'1918.9
2014-Aug-25 17:33N 34°57' E 140°10'1918.4
2014-Aug-25 16:33N 34°52' E 139°48'1717.3
2014-Aug-25 15:33N 35°09' E 139°45'1414.3
2014-Aug-25 14:34N 35°23' E 139°42'1413.8
2014-Aug-25 13:34N 35°36' E 139°47'2 1.7
2014-Aug-25 12:33N 35°38' E 139°46'0 0.0
2014-Aug-25 11:31N 35°38' E 139°46'0 0.0
2014-Aug-25 10:28N 35°38' E 139°46'0 0.0
2014-Aug-25 09:25N 35°38' E 139°46'0 0.0
2014-Aug-25 08:31N 35°38' E 139°46'0 0.0
2014-Aug-25 07:22N 35°38' E 139°46'0 0.0
2014-Aug-25 06:19N 35°38' E 139°46'0 0.0
2014-Aug-25 05:31N 35°38' E 139°46'0 0.0
2014-Aug-25 04:31N 35°38' E 139°46'0 0.0
2014-Aug-25 03:28N 35°38' E 139°46'2 2.4
2014-Aug-25 02:33N 35°36' E 139°47'5 5.1
2014-Aug-25 01:32N 35°34' E 139°53'0 0.0
2014-Aug-25 00:29N 35°34' E 139°53'0 0.0
2014-Aug-24 23:32N 35°34' E 139°53'0 0.1
2014-Aug-24 22:32N 35°34' E 139°53'0 0.0
2014-Aug-24 21:29N 35°34' E 139°53'0 0.0
2014-Aug-24 20:29N 35°34' E 139°53'0 0.0
2014-Aug-24 19:32N 35°34' E 139°53'0 0.0
2014-Aug-24 18:32N 35°34' E 139°53'0 0.0
2014-Aug-24 17:32N 35°34' E 139°53'0 0.0
2014-Aug-24 16:32N 35°34' E 139°53'0 0.0
2014-Aug-24 15:32N 35°34' E 139°53'0 0.0
2014-Aug-24 14:32N 35°34' E 139°53'0 0.0
2014-Aug-24 13:32N 35°34' E 139°53'0 0.0
2014-Aug-24 12:32N 35°34' E 139°53'0 0.0
2014-Aug-24 11:32N 35°34' E 139°53'0 0.0
2014-Aug-24 10:32N 35°34' E 139°53'0 0.0
2014-Aug-24 09:29N 35°34' E 139°53'0 0.0
2014-Aug-24 08:33N 35°34' E 139°53'1312.7
2014-Aug-24 07:33N 35°23' E 139°46'1313.0
2014-Aug-24 06:33N 35°10' E 139°47'1716.9
2014-Aug-24 05:33N 34°53' E 139°47'1616.1
2014-Aug-24 04:33N 34°56' E 140°06'2118.3
2014-Aug-24 03:25N 35°07' E 140°28'1818.5
2014-Aug-24 02:27N 35°21' E 140°42'1818.1
2014-Aug-24 01:28N 35°36' E 140°54'2618.6
2014-Aug-24 00:04N 35°59' E 141°07'1121.2
2014-Aug-23 23:33N 36°10' E 141°11'2020.3
2014-Aug-23 22:33N 36°29' E 141°17'2219.3
2014-Aug-23 21:23N 36°51' E 141°25'  

Dump ship's entire track history